Urb Novas CT, Puerto Rico
Current Conditions -  °F | °C
As of 11:56 AM on Wednesday 22 Oct 2014 (Local Time) from TJSJ Reporting Station
Few Clouds Few Clouds  
Wind Chill: 89°   Ceiling: Unl
Heat Index: 102°   Visibility: 10mi
Dew Point: 77°   Wind: 14mph
Humidity: 67%   Direction: 50°NE
Pressure: 29.95"   Gusts: NA
Location:  18.3882°N, 66.1144°W
Report Text: TJSJ 221556Z 05012KT 10SM FEW033 32/25 A2995 RMK AO2 SLP140 T03170250
Loading
Personal Weather Stations






























Interactive Weather Map
Tropical Storm Tracking
New forecast layout! Learn more

10-Day Weather Forecast

Advertisements
Track Severe Weather on mobile